sensor_id;sensor_type;location;lat;lon;timestamp;P1;durP1;ratioP1;P2;durP2;ratioP2
52926;SDS011;40783;49.710;8.842;2023-01-15T05:30:14;0.80;;;0.35;;
52926;SDS011;40783;49.710;8.842;2023-01-15T05:32:40;0.40;;;0.13;;
52926;SDS011;40783;49.710;8.842;2023-01-15T05:35:05;1.13;;;0.53;;
52926;SDS011;40783;49.710;8.842;2023-01-15T05:37:33;0.20;;;0.20;;
52926;SDS011;40783;49.710;8.842;2023-01-15T05:39:59;1.23;;;0.30;;
52926;SDS011;40783;49.710;8.842;2023-01-15T05:42:24;0.30;;;0.20;;
52926;SDS011;40783;49.710;8.842;2023-01-15T05:44:52;0.10;;;0.10;;
52926;SDS011;40783;49.710;8.842;2023-01-15T05:47:17;0.00;;;0.00;;
52926;SDS011;40783;49.710;8.842;2023-01-15T05:49:42;0.20;;;0.20;;
52926;SDS011;40783;49.710;8.842;2023-01-15T05:52:08;0.10;;;0.10;;
52926;SDS011;40783;49.710;8.842;2023-01-15T05:54:35;0.20;;;0.20;;
52926;SDS011;40783;49.710;8.842;2023-01-15T05:57:01;0.10;;;0.10;;
52926;SDS011;40783;49.710;8.842;2023-01-15T05:59:29;0.52;;;0.40;;
52926;SDS011;40783;49.710;8.842;2023-01-15T06:01:56;0.13;;;0.13;;
52926;SDS011;40783;49.710;8.842;2023-01-15T06:04:22;0.10;;;0.10;;
52926;SDS011;40783;49.710;8.842;2023-01-15T06:06:51;0.28;;;0.28;;
52926;SDS011;40783;49.710;8.842;2023-01-15T06:09:20;0.10;;;0.10;;
52926;SDS011;40783;49.710;8.842;2023-01-15T06:14:12;0.10;;;0.10;;
52926;SDS011;40783;49.710;8.842;2023-01-15T06:16:38;0.10;;;0.10;;
52926;SDS011;40783;49.710;8.842;2023-01-15T06:19:04;0.45;;;0.20;;
52926;SDS011;40783;49.710;8.842;2023-01-15T06:21:31;0.93;;;0.20;;
52926;SDS011;40783;49.710;8.842;2023-01-15T06:23:57;0.20;;;0.20;;
52926;SDS011;40783;49.710;8.842;2023-01-15T06:26:22;0.33;;;0.20;;
52926;SDS011;40783;49.710;8.842;2023-01-15T06:28:51;0.20;;;0.10;;
52926;SDS011;40783;49.710;8.842;2023-01-15T06:31:18;0.70;;;0.20;;
52926;SDS011;40783;49.710;8.842;2023-01-15T06:33:44;0.13;;;0.13;;
52926;SDS011;40783;49.710;8.842;2023-01-15T06:36:11;0.10;;;0.10;;
52926;SDS011;40783;49.710;8.842;2023-01-15T06:38:39;0.22;;;0.22;;
52926;SDS011;40783;49.710;8.842;2023-01-15T06:41:05;1.20;;;0.40;;
52926;SDS011;40783;49.710;8.842;2023-01-15T06:43:51;0.20;;;0.20;;
52926;SDS011;40783;49.710;8.842;2023-01-15T06:46:36;0.55;;;0.30;;
52926;SDS011;40783;49.710;8.842;2023-01-15T06:49:22;0.15;;;0.15;;
52926;SDS011;40783;49.710;8.842;2023-01-15T06:51:47;0.30;;;0.30;;
52926;SDS011;40783;49.710;8.842;2023-01-15T06:54:13;0.43;;;0.30;;
52926;SDS011;40783;49.710;8.842;2023-01-15T06:56:38;0.33;;;0.33;;
52926;SDS011;40783;49.710;8.842;2023-01-15T06:59:05;0.75;;;0.30;;
52926;SDS011;40783;49.710;8.842;2023-01-15T07:01:33;0.20;;;0.20;;
52926;SDS011;40783;49.710;8.842;2023-01-15T07:04:02;0.47;;;0.47;;
52926;SDS011;40783;49.710;8.842;2023-01-15T07:06:30;0.28;;;0.28;;
52926;SDS011;40783;49.710;8.842;2023-01-15T07:08:55;0.40;;;0.40;;
52926;SDS011;40783;49.710;8.842;2023-01-15T07:11:23;0.50;;;0.50;;
52926;SDS011;40783;49.710;8.842;2023-01-15T07:13:51;0.90;;;0.40;;
52926;SDS011;40783;49.710;8.842;2023-01-15T07:16:29;0.57;;;0.40;;
52926;SDS011;40783;49.710;8.842;2023-01-15T07:18:55;0.85;;;0.45;;
52926;SDS011;40783;49.710;8.842;2023-01-15T07:21:21;0.57;;;0.37;;
52926;SDS011;40783;49.710;8.842;2023-01-15T07:23:47;0.30;;;0.30;;
52926;SDS011;40783;49.710;8.842;2023-01-15T07:26:12;0.20;;;0.20;;
52926;SDS011;40783;49.710;8.842;2023-01-15T07:28:37;0.10;;;0.10;;
52926;SDS011;40783;49.710;8.842;2023-01-15T07:31:03;1.87;;;0.67;;
52926;SDS011;40783;49.710;8.842;2023-01-15T07:33:33;0.95;;;0.50;;
52926;SDS011;40783;49.710;8.842;2023-01-15T07:36:03;0.30;;;0.30;;
52926;SDS011;40783;49.710;8.842;2023-01-15T07:38:31;1.15;;;0.57;;
52926;SDS011;40783;49.710;8.842;2023-01-15T07:40:59;0.68;;;0.55;;
52926;SDS011;40783;49.710;8.842;2023-01-15T07:43:44;2.05;;;1.05;;
52926;SDS011;40783;49.710;8.842;2023-01-15T07:46:30;0.38;;;0.28;;
52926;SDS011;40783;49.710;8.842;2023-01-15T07:49:19;0.20;;;0.20;;
52926;SDS011;40783;49.710;8.842;2023-01-15T07:52:03;1.85;;;0.65;;
52926;SDS011;40783;49.710;8.842;2023-01-15T07:54:31;0.27;;;0.27;;
52926;SDS011;40783;49.710;8.842;2023-01-15T07:56:56;0.55;;;0.20;;
52926;SDS011;40783;49.710;8.842;2023-01-15T07:59:22;0.50;;;0.50;;
52926;SDS011;40783;49.710;8.842;2023-01-15T08:01:49;1.25;;;0.50;;
52926;SDS011;40783;49.710;8.842;2023-01-15T08:04:14;1.80;;;0.57;;
52926;SDS011;40783;49.710;8.842;2023-01-15T08:06:44;0.50;;;0.43;;
52926;SDS011;40783;49.710;8.842;2023-01-15T08:09:09;0.50;;;0.40;;
52926;SDS011;40783;49.710;8.842;2023-01-15T08:11:35;0.57;;;0.40;;
52926;SDS011;40783;49.710;8.842;2023-01-15T08:14:19;2.40;;;1.10;;
52926;SDS011;40783;49.710;8.842;2023-01-15T08:17:02;1.00;;;0.40;;
52926;SDS011;40783;49.710;8.842;2023-01-15T08:19:28;1.40;;;0.70;;
52926;SDS011;40783;49.710;8.842;2023-01-15T08:21:56;1.17;;;0.60;;
52926;SDS011;40783;49.710;8.842;2023-01-15T08:24:22;4.10;;;0.70;;
52926;SDS011;40783;49.710;8.842;2023-01-15T08:26:48;1.17;;;0.50;;
52926;SDS011;40783;49.710;8.842;2023-01-15T08:29:13;1.33;;;0.95;;
52926;SDS011;40783;49.710;8.842;2023-01-15T08:31:38;2.07;;;1.30;;
52926;SDS011;40783;49.710;8.842;2023-01-15T08:36:31;1.05;;;0.70;;
52926;SDS011;40783;49.710;8.842;2023-01-15T08:38:58;4.13;;;1.45;;
52926;SDS011;40783;49.710;8.842;2023-01-15T08:41:25;1.33;;;0.82;;
52926;SDS011;40783;49.710;8.842;2023-01-15T08:43:51;0.60;;;0.53;;
52926;SDS011;40783;49.710;8.842;2023-01-15T08:46:18;0.70;;;0.70;;
52926;SDS011;40783;49.710;8.842;2023-01-15T08:48:43;0.40;;;0.40;;
52926;SDS011;40783;49.710;8.842;2023-01-15T08:51:11;1.43;;;0.60;;
52926;SDS011;40783;49.710;8.842;2023-01-15T08:53:39;2.08;;;0.88;;
52926;SDS011;40783;49.710;8.842;2023-01-15T08:56:10;0.60;;;0.30;;
52926;SDS011;40783;49.710;8.842;2023-01-15T08:58:38;1.20;;;0.80;;
52926;SDS011;40783;49.710;8.842;2023-01-15T09:01:07;1.50;;;0.70;;
52926;SDS011;40783;49.710;8.842;2023-01-15T09:03:36;1.05;;;0.70;;
52926;SDS011;40783;49.710;8.842;2023-01-15T09:06:02;0.57;;;0.40;;
52926;SDS011;40783;49.710;8.842;2023-01-15T09:08:28;1.05;;;0.75;;
52926;SDS011;40783;49.710;8.842;2023-01-15T09:10:59;0.82;;;0.68;;
52926;SDS011;40783;49.710;8.842;2023-01-15T09:13:26;1.88;;;0.88;;
52926;SDS011;40783;49.710;8.842;2023-01-15T09:16:01;3.05;;;0.60;;
52926;SDS011;40783;49.710;8.842;2023-01-15T09:18:27;0.50;;;0.50;;
52926;SDS011;40783;49.710;8.842;2023-01-15T09:20:55;2.33;;;1.02;;
52926;SDS011;40783;49.710;8.842;2023-01-15T09:23:23;1.10;;;0.73;;
52926;SDS011;40783;49.710;8.842;2023-01-15T09:25:52;1.80;;;1.30;;
52926;SDS011;40783;49.710;8.842;2023-01-15T09:28:22;1.30;;;0.82;;
52926;SDS011;40783;49.710;8.842;2023-01-15T09:30:50;0.70;;;0.50;;
52926;SDS011;40783;49.710;8.842;2023-01-15T09:33:16;2.83;;;0.80;;
52926;SDS011;40783;49.710;8.842;2023-01-15T09:35:43;2.33;;;1.10;;
52926;SDS011;40783;49.710;8.842;2023-01-15T09:38:12;1.33;;;0.70;;
52926;SDS011;40783;49.710;8.842;2023-01-15T09:48:49;0.73;;;0.70;;
52926;SDS011;40783;49.710;8.842;2023-01-15T09:56:38;1.23;;;0.75;;
52926;SDS011;40783;49.710;8.842;2023-01-15T09:59:18;2.17;;;1.30;;
52926;SDS011;40783;49.710;8.842;2023-01-15T10:01:51;2.58;;;1.90;;
52926;SDS011;40783;49.710;8.842;2023-01-15T10:09:36;3.55;;;1.65;;
52926;SDS011;40783;49.710;8.842;2023-01-15T10:12:12;2.03;;;1.48;;
52926;SDS011;40783;49.710;8.842;2023-01-15T10:17:51;3.00;;;2.57;;
52926;SDS011;40783;49.710;8.842;2023-01-15T10:20:35;3.92;;;1.52;;
52926;SDS011;40783;49.710;8.842;2023-01-15T10:25:54;3.25;;;1.15;;
52926;SDS011;40783;49.710;8.842;2023-01-15T10:31:10;1.33;;;0.85;;
52926;SDS011;40783;49.710;8.842;2023-01-15T10:46:36;2.38;;;0.68;;
52926;SDS011;40783;49.710;8.842;2023-01-15T10:49:05;1.23;;;1.00;;
52926;SDS011;40783;49.710;8.842;2023-01-15T10:54:17;1.80;;;0.82;;
52926;SDS011;40783;49.710;8.842;2023-01-15T11:05:04;4.82;;;1.17;;
52926;SDS011;40783;49.710;8.842;2023-01-15T11:07:43;2.00;;;0.93;;
52926;SDS011;40783;49.710;8.842;2023-01-15T11:10:11;0.63;;;0.60;;
52926;SDS011;40783;49.710;8.842;2023-01-15T11:12:49;1.17;;;0.63;;
52926;SDS011;40783;49.710;8.842;2023-01-15T11:15:45;2.00;;;0.47;;
52926;SDS011;40783;49.710;8.842;2023-01-15T11:18:35;1.85;;;1.02;;
52926;SDS011;40783;49.710;8.842;2023-01-15T11:21:23;0.95;;;0.73;;
52926;SDS011;40783;49.710;8.842;2023-01-15T11:23:54;1.67;;;0.57;;
52926;SDS011;40783;49.710;8.842;2023-01-15T11:26:28;2.92;;;0.90;;
52926;SDS011;40783;49.710;8.842;2023-01-15T11:28:55;0.57;;;0.45;;
52926;SDS011;40783;49.710;8.842;2023-01-15T11:31:22;0.50;;;0.50;;
52926;SDS011;40783;49.710;8.842;2023-01-15T11:34:01;1.15;;;0.63;;
52926;SDS011;40783;49.710;8.842;2023-01-15T11:36:30;0.85;;;0.75;;
52926;SDS011;40783;49.710;8.842;2023-01-15T11:38:56;1.42;;;0.50;;
52926;SDS011;40783;49.710;8.842;2023-01-15T11:41:30;1.55;;;0.77;;
52926;SDS011;40783;49.710;8.842;2023-01-15T11:44:19;3.80;;;0.73;;
52926;SDS011;40783;49.710;8.842;2023-01-15T11:47:11;2.10;;;1.42;;
52926;SDS011;40783;49.710;8.842;2023-01-15T11:49:56;2.45;;;1.73;;
52926;SDS011;40783;49.710;8.842;2023-01-15T11:52:41;3.45;;;1.55;;
52926;SDS011;40783;49.710;8.842;2023-01-15T11:55:11;1.85;;;0.63;;
52926;SDS011;40783;49.710;8.842;2023-01-15T11:57:39;1.38;;;0.98;;
52926;SDS011;40783;49.710;8.842;2023-01-15T12:00:13;1.23;;;0.80;;
52926;SDS011;40783;49.710;8.842;2023-01-15T12:02:47;1.77;;;0.95;;
52926;SDS011;40783;49.710;8.842;2023-01-15T12:05:15;0.77;;;0.77;;
52926;SDS011;40783;49.710;8.842;2023-01-15T12:07:43;1.50;;;0.57;;
52926;SDS011;40783;49.710;8.842;2023-01-15T12:10:21;2.55;;;1.10;;
52926;SDS011;40783;49.710;8.842;2023-01-15T12:18:54;2.20;;;1.20;;
52926;SDS011;40783;49.710;8.842;2023-01-15T12:32:40;5.40;;;1.58;;
52926;SDS011;40783;49.710;8.842;2023-01-15T12:35:32;7.68;;;2.22;;
52926;SDS011;40783;49.710;8.842;2023-01-15T12:38:04;8.75;;;2.25;;
52926;SDS011;40783;49.710;8.842;2023-01-15T12:40:39;4.47;;;1.45;;
52926;SDS011;40783;49.710;8.842;2023-01-15T12:43:20;2.63;;;1.65;;
52926;SDS011;40783;49.710;8.842;2023-01-15T12:46:09;1.65;;;0.82;;
52926;SDS011;40783;49.710;8.842;2023-01-15T12:51:17;5.32;;;1.60;;
52926;SDS011;40783;49.710;8.842;2023-01-15T12:53:52;5.10;;;1.77;;
52926;SDS011;40783;49.710;8.842;2023-01-15T13:10:21;2.25;;;1.20;;
52926;SDS011;40783;49.710;8.842;2023-01-15T13:12:48;2.22;;;1.42;;
52926;SDS011;40783;49.710;8.842;2023-01-15T13:15:20;2.78;;;1.20;;
52926;SDS011;40783;49.710;8.842;2023-01-15T13:34:11;2.83;;;1.02;;
52926;SDS011;40783;49.710;8.842;2023-01-15T13:37:01;2.55;;;1.38;;
52926;SDS011;40783;49.710;8.842;2023-01-15T13:39:40;3.15;;;1.33;;
52926;SDS011;40783;49.710;8.842;2023-01-15T13:42:18;2.78;;;1.13;;
52926;SDS011;40783;49.710;8.842;2023-01-15T13:44:57;3.60;;;1.67;;
52926;SDS011;40783;49.710;8.842;2023-01-15T13:47:27;2.53;;;0.70;;
52926;SDS011;40783;49.710;8.842;2023-01-15T13:49:58;2.42;;;1.17;;
52926;SDS011;40783;49.710;8.842;2023-01-15T13:52:34;5.00;;;2.03;;
52926;SDS011;40783;49.710;8.842;2023-01-15T13:57:58;1.00;;;0.82;;
52926;SDS011;40783;49.710;8.842;2023-01-15T14:00:28;3.63;;;1.20;;
52926;SDS011;40783;49.710;8.842;2023-01-15T14:03:24;3.08;;;1.08;;
52926;SDS011;40783;49.710;8.842;2023-01-15T14:05:58;1.60;;;0.97;;
52926;SDS011;40783;49.710;8.842;2023-01-15T14:08:35;5.05;;;0.98;;
52926;SDS011;40783;49.710;8.842;2023-01-15T14:11:04;2.83;;;1.10;;
52926;SDS011;40783;49.710;8.842;2023-01-15T14:13:38;5.15;;;1.45;;
52926;SDS011;40783;49.710;8.842;2023-01-15T14:16:26;2.17;;;1.23;;
52926;SDS011;40783;49.710;8.842;2023-01-15T14:21:33;2.97;;;1.50;;
52926;SDS011;40783;49.710;8.842;2023-01-15T14:26:56;3.45;;;1.50;;
52926;SDS011;40783;49.710;8.842;2023-01-15T14:34:52;7.95;;;2.00;;
52926;SDS011;40783;49.710;8.842;2023-01-15T14:37:24;9.80;;;1.73;;
52926;SDS011;40783;49.710;8.842;2023-01-15T14:39:58;12.35;;;6.15;;
52926;SDS011;40783;49.710;8.842;2023-01-15T14:42:30;29.05;;;13.52;;
52926;SDS011;40783;49.710;8.842;2023-01-15T14:47:57;10.23;;;2.53;;
52926;SDS011;40783;49.710;8.842;2023-01-15T14:50:28;2.85;;;1.38;;
52926;SDS011;40783;49.710;8.842;2023-01-15T14:58:41;5.43;;;1.35;;
52926;SDS011;40783;49.710;8.842;2023-01-15T15:06:46;6.20;;;1.67;;
52926;SDS011;40783;49.710;8.842;2023-01-15T15:09:27;4.00;;;1.85;;
52926;SDS011;40783;49.710;8.842;2023-01-15T15:12:02;7.88;;;1.65;;
52926;SDS011;40783;49.710;8.842;2023-01-15T15:14:49;3.90;;;1.98;;
52926;SDS011;40783;49.710;8.842;2023-01-15T15:17:30;4.93;;;2.13;;
52926;SDS011;40783;49.710;8.842;2023-01-15T15:23:16;5.45;;;2.22;;
52926;SDS011;40783;49.710;8.842;2023-01-15T15:25:59;5.30;;;2.15;;
52926;SDS011;40783;49.710;8.842;2023-01-15T15:28:28;8.25;;;2.22;;
52926;SDS011;40783;49.710;8.842;2023-01-15T15:30:54;5.35;;;2.67;;
52926;SDS011;40783;49.710;8.842;2023-01-15T15:33:24;26.00;;;11.85;;
52926;SDS011;40783;49.710;8.842;2023-01-15T15:35:56;15.82;;;10.40;;
52926;SDS011;40783;49.710;8.842;2023-01-15T15:38:24;25.88;;;16.60;;
52926;SDS011;40783;49.710;8.842;2023-01-15T15:40:57;10.88;;;5.90;;
52926;SDS011;40783;49.710;8.842;2023-01-15T15:43:37;9.00;;;3.72;;
52926;SDS011;40783;49.710;8.842;2023-01-15T15:46:30;8.48;;;3.88;;
52926;SDS011;40783;49.710;8.842;2023-01-15T15:49:15;4.55;;;2.47;;
52926;SDS011;40783;49.710;8.842;2023-01-15T15:51:45;5.45;;;2.50;;
52926;SDS011;40783;49.710;8.842;2023-01-15T15:54:14;4.65;;;2.65;;
52926;SDS011;40783;49.710;8.842;2023-01-15T15:56:49;3.67;;;1.75;;
52926;SDS011;40783;49.710;8.842;2023-01-15T15:59:37;3.63;;;2.13;;
52926;SDS011;40783;49.710;8.842;2023-01-15T16:02:12;5.78;;;1.83;;
52926;SDS011;40783;49.710;8.842;2023-01-15T16:04:43;4.13;;;1.90;;
52926;SDS011;40783;49.710;8.842;2023-01-15T16:07:25;6.18;;;1.95;;
52926;SDS011;40783;49.710;8.842;2023-01-15T16:12:43;2.88;;;1.55;;
52926;SDS011;40783;49.710;8.842;2023-01-15T16:15:52;2.33;;;1.25;;
52926;SDS011;40783;49.710;8.842;2023-01-15T16:18:05;2.65;;;1.25;;
52926;SDS011;40783;49.710;8.842;2023-01-15T16:20:43;4.03;;;1.58;;
52926;SDS011;40783;49.710;8.842;2023-01-15T16:23:28;28.25;;;16.02;;
52926;SDS011;40783;49.710;8.842;2023-01-15T16:25:55;16.05;;;7.43;;
52926;SDS011;40783;49.710;8.842;2023-01-15T16:28:51;8.90;;;3.55;;
52926;SDS011;40783;49.710;8.842;2023-01-15T16:31:19;6.05;;;2.25;;
52926;SDS011;40783;49.710;8.842;2023-01-15T16:33:46;4.03;;;1.85;;
52926;SDS011;40783;49.710;8.842;2023-01-15T16:36:17;4.57;;;2.08;;
52926;SDS011;40783;49.710;8.842;2023-01-15T16:38:45;6.15;;;3.08;;
52926;SDS011;40783;49.710;8.842;2023-01-15T16:41:19;1.80;;;0.90;;
52926;SDS011;40783;49.710;8.842;2023-01-15T16:43:57;6.03;;;2.03;;
52926;SDS011;40783;49.710;8.842;2023-01-15T16:46:25;3.53;;;2.17;;
52926;SDS011;40783;49.710;8.842;2023-01-15T16:51:45;8.15;;;2.33;;
52926;SDS011;40783;49.710;8.842;2023-01-15T16:56:55;4.28;;;1.83;;
52926;SDS011;40783;49.710;8.842;2023-01-15T17:02:13;3.53;;;2.17;;
52926;SDS011;40783;49.710;8.842;2023-01-15T17:04:40;5.60;;;2.63;;
52926;SDS011;40783;49.710;8.842;2023-01-15T17:07:15;3.17;;;1.98;;
52926;SDS011;40783;49.710;8.842;2023-01-15T17:09:54;5.82;;;1.67;;
52926;SDS011;40783;49.710;8.842;2023-01-15T17:12:26;5.18;;;3.10;;
52926;SDS011;40783;49.710;8.842;2023-01-15T17:17:39;4.10;;;2.55;;
52926;SDS011;40783;49.710;8.842;2023-01-15T17:20:07;10.13;;;3.72;;
52926;SDS011;40783;49.710;8.842;2023-01-15T17:22:33;6.18;;;2.22;;
52926;SDS011;40783;49.710;8.842;2023-01-15T17:25:01;5.32;;;2.95;;
52926;SDS011;40783;49.710;8.842;2023-01-15T17:27:29;2.72;;;1.52;;
52926;SDS011;40783;49.710;8.842;2023-01-15T17:29:54;11.73;;;5.47;;
52926;SDS011;40783;49.710;8.842;2023-01-15T17:35:37;5.85;;;1.92;;
52926;SDS011;40783;49.710;8.842;2023-01-15T17:38:05;13.80;;;2.80;;
52926;SDS011;40783;49.710;8.842;2023-01-15T17:40:42;13.00;;;6.70;;
52926;SDS011;40783;49.710;8.842;2023-01-15T17:43:13;4.70;;;2.80;;
52926;SDS011;40783;49.710;8.842;2023-01-15T17:45:41;8.70;;;4.30;;
52926;SDS011;40783;49.710;8.842;2023-01-15T17:48:11;10.93;;;3.08;;
52926;SDS011;40783;49.710;8.842;2023-01-15T17:50:37;3.45;;;2.10;;
52926;SDS011;40783;49.710;8.842;2023-01-15T17:53:07;7.97;;;1.65;;
52926;SDS011;40783;49.710;8.842;2023-01-15T17:55:42;12.13;;;4.75;;
52926;SDS011;40783;49.710;8.842;2023-01-15T17:58:29;6.05;;;2.20;;
52926;SDS011;40783;49.710;8.842;2023-01-15T18:01:16;6.22;;;1.80;;
52926;SDS011;40783;49.710;8.842;2023-01-15T18:04:17;6.93;;;3.28;;
52926;SDS011;40783;49.710;8.842;2023-01-15T18:10:05;5.95;;;2.03;;
52926;SDS011;40783;49.710;8.842;2023-01-15T18:12:35;22.73;;;4.25;;
52926;SDS011;40783;49.710;8.842;2023-01-15T18:15:00;11.47;;;3.60;;
52926;SDS011;40783;49.710;8.842;2023-01-15T18:17:28;3.83;;;2.27;;
52926;SDS011;40783;49.710;8.842;2023-01-15T18:19:55;4.38;;;1.85;;
52926;SDS011;40783;49.710;8.842;2023-01-15T18:22:20;8.33;;;2.43;;
52926;SDS011;40783;49.710;8.842;2023-01-15T18:24:46;11.67;;;2.53;;
52926;SDS011;40783;49.710;8.842;2023-01-15T18:27:22;11.70;;;2.67;;
52926;SDS011;40783;49.710;8.842;2023-01-15T18:29:53;11.00;;;4.43;;
52926;SDS011;40783;49.710;8.842;2023-01-15T18:32:21;7.38;;;3.63;;
52926;SDS011;40783;49.710;8.842;2023-01-15T18:34:47;9.07;;;4.38;;
52926;SDS011;40783;49.710;8.842;2023-01-15T18:37:12;5.43;;;3.03;;
52926;SDS011;40783;49.710;8.842;2023-01-15T18:39:42;4.40;;;2.72;;
52926;SDS011;40783;49.710;8.842;2023-01-15T18:42:08;11.07;;;3.97;;
52926;SDS011;40783;49.710;8.842;2023-01-15T18:44:34;4.30;;;2.60;;
52926;SDS011;40783;49.710;8.842;2023-01-15T18:47:18;10.00;;;3.30;;
52926;SDS011;40783;49.710;8.842;2023-01-15T18:50:04;6.70;;;4.78;;
52926;SDS011;40783;49.710;8.842;2023-01-15T18:52:32;6.88;;;3.67;;
52926;SDS011;40783;49.710;8.842;2023-01-15T18:55:16;9.23;;;4.07;;
52926;SDS011;40783;49.710;8.842;2023-01-15T18:57:44;15.40;;;3.13;;
52926;SDS011;40783;49.710;8.842;2023-01-15T19:00:14;9.25;;;3.72;;
52926;SDS011;40783;49.710;8.842;2023-01-15T19:02:39;10.68;;;3.90;;
52926;SDS011;40783;49.710;8.842;2023-01-15T19:05:05;5.57;;;3.07;;
52926;SDS011;40783;49.710;8.842;2023-01-15T19:07:31;2.93;;;1.83;;
52926;SDS011;40783;49.710;8.842;2023-01-15T19:09:57;6.53;;;3.00;;
52926;SDS011;40783;49.710;8.842;2023-01-15T19:12:22;5.23;;;1.60;;
52926;SDS011;40783;49.710;8.842;2023-01-15T19:14:47;2.93;;;1.33;;
52926;SDS011;40783;49.710;8.842;2023-01-15T19:17:31;1.30;;;1.02;;
52926;SDS011;40783;49.710;8.842;2023-01-15T19:20:16;3.15;;;1.50;;
52926;SDS011;40783;49.710;8.842;2023-01-15T19:22:46;4.18;;;1.50;;
52926;SDS011;40783;49.710;8.842;2023-01-15T19:25:24;6.57;;;1.73;;
52926;SDS011;40783;49.710;8.842;2023-01-15T19:27:53;4.53;;;1.25;;
52926;SDS011;40783;49.710;8.842;2023-01-15T19:30:19;4.20;;;1.73;;
52926;SDS011;40783;49.710;8.842;2023-01-15T19:32:45;3.22;;;1.45;;
52926;SDS011;40783;49.710;8.842;2023-01-15T19:35:10;3.53;;;1.23;;
52926;SDS011;40783;49.710;8.842;2023-01-15T19:37:41;4.15;;;1.13;;
52926;SDS011;40783;49.710;8.842;2023-01-15T19:40:08;4.03;;;2.00;;
52926;SDS011;40783;49.710;8.842;2023-01-15T19:42:38;4.28;;;1.85;;
52926;SDS011;40783;49.710;8.842;2023-01-15T19:45:21;8.15;;;2.13;;
52926;SDS011;40783;49.710;8.842;2023-01-15T19:48:07;7.90;;;1.42;;
52926;SDS011;40783;49.710;8.842;2023-01-15T19:50:54;6.80;;;1.90;;
52926;SDS011;40783;49.710;8.842;2023-01-15T19:53:20;3.40;;;1.83;;
52926;SDS011;40783;49.710;8.842;2023-01-15T19:55:45;3.27;;;1.70;;
52926;SDS011;40783;49.710;8.842;2023-01-15T19:58:13;5.22;;;2.13;;
52926;SDS011;40783;49.710;8.842;2023-01-15T20:00:40;6.40;;;3.25;;
52926;SDS011;40783;49.710;8.842;2023-01-15T20:03:09;10.30;;;3.10;;
52926;SDS011;40783;49.710;8.842;2023-01-15T20:05:38;5.13;;;1.88;;
52926;SDS011;40783;49.710;8.842;2023-01-15T20:08:04;12.95;;;4.80;;
52926;SDS011;40783;49.710;8.842;2023-01-15T20:10:47;4.68;;;2.30;;
52926;SDS011;40783;49.710;8.842;2023-01-15T20:13:18;7.47;;;2.45;;
52926;SDS011;40783;49.710;8.842;2023-01-15T20:16:14;2.08;;;1.48;;
52926;SDS011;40783;49.710;8.842;2023-01-15T20:18:43;10.77;;;3.20;;
52926;SDS011;40783;49.710;8.842;2023-01-15T20:21:08;9.50;;;1.77;;
52926;SDS011;40783;49.710;8.842;2023-01-15T20:23:38;2.08;;;1.15;;
52926;SDS011;40783;49.710;8.842;2023-01-15T20:26:04;1.63;;;1.07;;
52926;SDS011;40783;49.710;8.842;2023-01-15T20:28:36;6.07;;;1.50;;
52926;SDS011;40783;49.710;8.842;2023-01-15T20:31:06;5.15;;;2.42;;
52926;SDS011;40783;49.710;8.842;2023-01-15T20:33:38;2.80;;;1.30;;
52926;SDS011;40783;49.710;8.842;2023-01-15T20:36:03;10.17;;;1.93;;
52926;SDS011;40783;49.710;8.842;2023-01-15T20:38:29;7.33;;;2.23;;
52926;SDS011;40783;49.710;8.842;2023-01-15T20:40:55;5.05;;;1.98;;
52926;SDS011;40783;49.710;8.842;2023-01-15T20:43:40;3.25;;;1.67;;
52926;SDS011;40783;49.710;8.842;2023-01-15T20:46:24;5.75;;;2.38;;
52926;SDS011;40783;49.710;8.842;2023-01-15T20:48:51;5.25;;;2.90;;
52926;SDS011;40783;49.710;8.842;2023-01-15T20:51:43;7.18;;;1.90;;
52926;SDS011;40783;49.710;8.842;2023-01-15T20:54:11;2.38;;;1.20;;
52926;SDS011;40783;49.710;8.842;2023-01-15T20:56:38;4.65;;;2.88;;
52926;SDS011;40783;49.710;8.842;2023-01-15T20:59:03;3.67;;;1.73;;
52926;SDS011;40783;49.710;8.842;2023-01-15T21:01:31;2.38;;;1.48;;
52926;SDS011;40783;49.710;8.842;2023-01-15T21:03:59;3.00;;;1.60;;
52926;SDS011;40783;49.710;8.842;2023-01-15T21:06:26;2.25;;;1.13;;
52926;SDS011;40783;49.710;8.842;2023-01-15T21:08:51;4.03;;;1.73;;
52926;SDS011;40783;49.710;8.842;2023-01-15T21:11:18;4.20;;;1.98;;
52926;SDS011;40783;49.710;8.842;2023-01-15T21:13:44;4.15;;;1.65;;
52926;SDS011;40783;49.710;8.842;2023-01-15T21:16:10;14.07;;;2.67;;
52926;SDS011;40783;49.710;8.842;2023-01-15T21:18:36;3.20;;;1.52;;
52926;SDS011;40783;49.710;8.842;2023-01-15T21:21:07;4.18;;;1.20;;
52926;SDS011;40783;49.710;8.842;2023-01-15T21:23:46;2.40;;;1.48;;
52926;SDS011;40783;49.710;8.842;2023-01-15T21:26:14;16.52;;;2.90;;
52926;SDS011;40783;49.710;8.842;2023-01-15T21:28:40;5.47;;;2.55;;
52926;SDS011;40783;49.710;8.842;2023-01-15T21:31:06;2.73;;;1.73;;
52926;SDS011;40783;49.710;8.842;2023-01-15T21:33:35;4.82;;;1.58;;
52926;SDS011;40783;49.710;8.842;2023-01-15T21:36:05;7.55;;;1.42;;
52926;SDS011;40783;49.710;8.842;2023-01-15T21:38:31;4.88;;;1.25;;
52926;SDS011;40783;49.710;8.842;2023-01-15T21:41:09;2.20;;;1.27;;
52926;SDS011;40783;49.710;8.842;2023-01-15T21:43:38;2.38;;;1.35;;
52926;SDS011;40783;49.710;8.842;2023-01-15T21:46:23;4.80;;;2.80;;
52926;SDS011;40783;49.710;8.842;2023-01-15T21:48:55;6.25;;;2.70;;
52926;SDS011;40783;49.710;8.842;2023-01-15T21:51:22;4.82;;;2.08;;
52926;SDS011;40783;49.710;8.842;2023-01-15T21:53:48;10.15;;;2.85;;
52926;SDS011;40783;49.710;8.842;2023-01-15T21:56:13;7.87;;;2.90;;
52926;SDS011;40783;49.710;8.842;2023-01-15T21:58:39;6.00;;;1.87;;
52926;SDS011;40783;49.710;8.842;2023-01-15T22:01:11;4.78;;;2.45;;
52926;SDS011;40783;49.710;8.842;2023-01-15T22:03:38;4.85;;;1.90;;
52926;SDS011;40783;49.710;8.842;2023-01-15T22:06:05;9.17;;;2.23;;
52926;SDS011;40783;49.710;8.842;2023-01-15T22:08:31;2.85;;;1.15;;
52926;SDS011;40783;49.710;8.842;2023-01-15T22:11:00;5.78;;;1.42;;
52926;SDS011;40783;49.710;8.842;2023-01-15T22:13:32;1.67;;;0.85;;
52926;SDS011;40783;49.710;8.842;2023-01-15T22:15:58;3.65;;;1.75;;
52926;SDS011;40783;49.710;8.842;2023-01-15T22:18:28;5.57;;;1.65;;
52926;SDS011;40783;49.710;8.842;2023-01-15T22:20:56;4.72;;;0.95;;
52926;SDS011;40783;49.710;8.842;2023-01-15T22:23:23;3.42;;;1.48;;
52926;SDS011;40783;49.710;8.842;2023-01-15T22:25:50;4.78;;;1.40;;
52926;SDS011;40783;49.710;8.842;2023-01-15T22:28:21;2.85;;;1.98;;
52926;SDS011;40783;49.710;8.842;2023-01-15T22:30:49;4.55;;;1.42;;
52926;SDS011;40783;49.710;8.842;2023-01-15T22:33:17;3.08;;;1.50;;
52926;SDS011;40783;49.710;8.842;2023-01-15T22:35:43;6.67;;;2.17;;
52926;SDS011;40783;49.710;8.842;2023-01-15T22:38:08;5.80;;;2.17;;
52926;SDS011;40783;49.710;8.842;2023-01-15T22:40:36;3.93;;;1.43;;
52926;SDS011;40783;49.710;8.842;2023-01-15T22:43:01;6.32;;;1.52;;
52926;SDS011;40783;49.710;8.842;2023-01-15T22:45:26;3.03;;;1.43;;
52926;SDS011;40783;49.710;8.842;2023-01-15T22:47:54;5.28;;;1.58;;
52926;SDS011;40783;49.710;8.842;2023-01-15T22:50:19;3.47;;;1.47;;
52926;SDS011;40783;49.710;8.842;2023-01-15T22:52:44;4.03;;;1.83;;
52926;SDS011;40783;49.710;8.842;2023-01-15T22:55:10;3.97;;;1.77;;
52926;SDS011;40783;49.710;8.842;2023-01-15T22:57:36;4.65;;;1.08;;
52926;SDS011;40783;49.710;8.842;2023-01-15T23:00:02;3.17;;;2.00;;
52926;SDS011;40783;49.710;8.842;2023-01-15T23:02:31;3.35;;;1.30;;
52926;SDS011;40783;49.710;8.842;2023-01-15T23:05:15;5.88;;;1.67;;
52926;SDS011;40783;49.710;8.842;2023-01-15T23:07:42;2.22;;;1.33;;
52926;SDS011;40783;49.710;8.842;2023-01-15T23:10:10;10.65;;;1.83;;
52926;SDS011;40783;49.710;8.842;2023-01-15T23:12:37;3.67;;;1.50;;
52926;SDS011;40783;49.710;8.842;2023-01-15T23:15:03;7.78;;;1.73;;
52926;SDS011;40783;49.710;8.842;2023-01-15T23:17:33;2.00;;;0.68;;
